sensor_id;sensor_type;location;lat;lon;timestamp;pressure;altitude;pressure_sealevel;temperature;humidity
73457;BME280;61691;53.072;6.582;2023-06-14T00:01:56;101674.91;;;17.01;45.47
73457;BME280;61691;53.072;6.582;2023-06-14T00:04:22;101732.28;;;17.34;45.83
73457;BME280;61691;53.072;6.582;2023-06-14T00:06:52;101723.47;;;17.24;46.25
73457;BME280;61691;53.072;6.582;2023-06-14T00:09:19;101710.66;;;17.10;46.21
73457;BME280;61691;53.072;6.582;2023-06-14T00:11:45;101719.88;;;17.16;46.76
73457;BME280;61691;53.072;6.582;2023-06-14T00:14:12;101721.91;;;17.14;46.65
73457;BME280;61691;53.072;6.582;2023-06-14T00:16:40;101724.50;;;17.06;46.85
73457;BME280;61691;53.072;6.582;2023-06-14T00:19:09;101722.28;;;17.01;47.31
73457;BME280;61691;53.072;6.582;2023-06-14T00:21:37;101733.00;;;17.01;47.29
73457;BME280;61691;53.072;6.582;2023-06-14T00:24:04;101742.50;;;16.95;47.63
73457;BME280;61691;53.072;6.582;2023-06-14T00:26:31;101679.00;;;16.52;47.95
73457;BME280;61691;53.072;6.582;2023-06-14T00:28:58;101733.19;;;16.82;48.12
73457;BME280;61691;53.072;6.582;2023-06-14T00:31:25;101723.38;;;16.73;48.21
73457;BME280;61691;53.072;6.582;2023-06-14T00:33:52;101723.66;;;16.70;48.41
73457;BME280;61691;53.072;6.582;2023-06-14T00:36:19;101730.41;;;16.74;48.63
73457;BME280;61691;53.072;6.582;2023-06-14T00:38:46;101713.31;;;16.57;48.80
73457;BME280;61691;53.072;6.582;2023-06-14T00:41:12;101732.16;;;16.65;49.15
73457;BME280;61691;53.072;6.582;2023-06-14T00:43:39;101738.06;;;16.69;49.59
73457;BME280;61691;53.072;6.582;2023-06-14T00:46:06;101728.94;;;16.61;49.50
73457;BME280;61691;53.072;6.582;2023-06-14T00:48:34;101735.00;;;16.63;49.97
73457;BME280;61691;53.072;6.582;2023-06-14T00:51:01;101734.72;;;16.57;50.09
73457;BME280;61691;53.072;6.582;2023-06-14T00:53:31;101735.88;;;16.54;50.51
73457;BME280;61691;53.072;6.582;2023-06-14T00:56:00;101708.97;;;16.38;50.39
73457;BME280;61691;53.072;6.582;2023-06-14T00:58:27;101734.13;;;16.45;51.01
73457;BME280;61691;53.072;6.582;2023-06-14T01:00:54;101741.44;;;16.43;51.47
73457;BME280;61691;53.072;6.582;2023-06-14T01:03:21;101750.19;;;16.45;51.42
73457;BME280;61691;53.072;6.582;2023-06-14T01:05:56;101753.44;;;16.39;51.82
73457;BME280;61691;53.072;6.582;2023-06-14T01:08:40;101732.53;;;16.25;52.02
73457;BME280;61691;53.072;6.582;2023-06-14T01:11:16;101761.06;;;16.34;51.57
73457;BME280;61691;53.072;6.582;2023-06-14T01:13:46;101755.03;;;16.32;51.99
73457;BME280;61691;53.072;6.582;2023-06-14T01:16:13;101728.25;;;16.14;52.11
73457;BME280;61691;53.072;6.582;2023-06-14T01:18:41;101752.66;;;16.29;52.12
73457;BME280;61691;53.072;6.582;2023-06-14T01:21:20;101747.91;;;16.23;52.63
73457;BME280;61691;53.072;6.582;2023-06-14T01:23:47;101747.97;;;16.13;52.99
73457;BME280;61691;53.072;6.582;2023-06-14T01:26:23;101748.81;;;16.14;53.42
73457;BME280;61691;53.072;6.582;2023-06-14T01:28:50;101743.22;;;16.07;53.32
73457;BME280;61691;53.072;6.582;2023-06-14T01:31:20;101752.91;;;16.08;53.46
73457;BME280;61691;53.072;6.582;2023-06-14T01:33:50;101741.28;;;16.00;53.83
73457;BME280;61691;53.072;6.582;2023-06-14T01:36:19;101736.81;;;15.91;53.78
73457;BME280;61691;53.072;6.582;2023-06-14T01:38:47;101756.63;;;15.98;54.01
73457;BME280;61691;53.072;6.582;2023-06-14T01:41:17;101730.34;;;15.83;54.33
73457;BME280;61691;53.072;6.582;2023-06-14T01:43:46;101750.44;;;15.87;54.40
73457;BME280;61691;53.072;6.582;2023-06-14T01:46:15;101736.72;;;15.73;54.78
73457;BME280;61691;53.072;6.582;2023-06-14T01:48:42;101758.06;;;15.82;55.04
73457;BME280;61691;53.072;6.582;2023-06-14T01:51:09;101756.00;;;15.76;54.92
73457;BME280;61691;53.072;6.582;2023-06-14T01:53:36;101743.50;;;15.67;55.48
73457;BME280;61691;53.072;6.582;2023-06-14T01:56:03;101749.53;;;15.69;55.54
73457;BME280;61691;53.072;6.582;2023-06-14T01:58:30;101757.56;;;15.69;55.60
73457;BME280;61691;53.072;6.582;2023-06-14T02:00:57;101744.81;;;15.54;55.90
73457;BME280;61691;53.072;6.582;2023-06-14T02:03:25;101746.63;;;15.43;55.76
73457;BME280;61691;53.072;6.582;2023-06-14T02:05:52;101662.81;;;14.88;56.53
73457;BME280;61691;53.072;6.582;2023-06-14T02:08:18;101737.63;;;15.35;56.55
73457;BME280;61691;53.072;6.582;2023-06-14T02:10:45;101749.16;;;15.35;56.39
73457;BME280;61691;53.072;6.582;2023-06-14T02:13:12;101757.75;;;15.39;56.72
73457;BME280;61691;53.072;6.582;2023-06-14T02:15:39;101758.88;;;15.36;57.14
73457;BME280;61691;53.072;6.582;2023-06-14T02:18:06;101733.88;;;15.18;57.42
73457;BME280;61691;53.072;6.582;2023-06-14T02:20:33;101749.88;;;15.28;57.00
73457;BME280;61691;53.072;6.582;2023-06-14T02:23:00;101740.34;;;15.25;56.94
73457;BME280;61691;53.072;6.582;2023-06-14T02:25:27;101727.41;;;15.11;57.17
73457;BME280;61691;53.072;6.582;2023-06-14T02:27:55;101756.91;;;15.29;57.62
73457;BME280;61691;53.072;6.582;2023-06-14T02:30:22;101742.44;;;15.22;57.89
73457;BME280;61691;53.072;6.582;2023-06-14T02:32:49;101716.88;;;15.00;57.80
73457;BME280;61691;53.072;6.582;2023-06-14T02:35:17;101733.19;;;15.06;58.08
73457;BME280;61691;53.072;6.582;2023-06-14T02:37:44;101736.97;;;15.14;57.68
73457;BME280;61691;53.072;6.582;2023-06-14T02:40:11;101751.56;;;15.19;57.92
73457;BME280;61691;53.072;6.582;2023-06-14T02:42:38;101757.06;;;15.18;58.24
73457;BME280;61691;53.072;6.582;2023-06-14T02:45:06;101722.22;;;14.90;58.06
73457;BME280;61691;53.072;6.582;2023-06-14T02:47:33;101746.53;;;15.06;58.18
73457;BME280;61691;53.072;6.582;2023-06-14T02:50:00;101732.22;;;14.88;58.28
73457;BME280;61691;53.072;6.582;2023-06-14T02:52:26;101764.50;;;15.04;59.06
73457;BME280;61691;53.072;6.582;2023-06-14T02:54:53;101746.81;;;14.84;59.07
73457;BME280;61691;53.072;6.582;2023-06-14T02:57:21;101770.41;;;14.98;59.11
73457;BME280;61691;53.072;6.582;2023-06-14T02:59:48;101771.69;;;14.94;59.32
73457;BME280;61691;53.072;6.582;2023-06-14T03:02:15;101768.44;;;14.91;59.24
73457;BME280;61691;53.072;6.582;2023-06-14T03:04:42;101763.09;;;14.81;59.30
73457;BME280;61691;53.072;6.582;2023-06-14T03:07:11;101767.91;;;14.87;59.97
73457;BME280;61691;53.072;6.582;2023-06-14T03:09:39;101780.53;;;14.85;60.69
73457;BME280;61691;53.072;6.582;2023-06-14T03:12:06;101785.03;;;14.85;60.23
73457;BME280;61691;53.072;6.582;2023-06-14T03:14:36;101748.91;;;14.61;59.97
73457;BME280;61691;53.072;6.582;2023-06-14T03:17:03;101753.00;;;14.65;60.22
73457;BME280;61691;53.072;6.582;2023-06-14T03:19:31;101770.97;;;14.73;60.67
73457;BME280;61691;53.072;6.582;2023-06-14T03:21:58;101780.94;;;14.90;60.74
73457;BME280;61691;53.072;6.582;2023-06-14T03:24:25;101776.59;;;14.89;60.31
73457;BME280;61691;53.072;6.582;2023-06-14T03:26:55;101780.81;;;14.92;60.47
73457;BME280;61691;53.072;6.582;2023-06-14T03:29:23;101788.41;;;14.96;60.22
73457;BME280;61691;53.072;6.582;2023-06-14T03:31:58;101789.81;;;15.00;60.55
73457;BME280;61691;53.072;6.582;2023-06-14T03:34:25;101700.44;;;14.47;60.72
73457;BME280;61691;53.072;6.582;2023-06-14T03:36:52;101800.06;;;15.05;60.56
73457;BME280;61691;53.072;6.582;2023-06-14T03:39:19;101787.00;;;15.02;60.46
73457;BME280;61691;53.072;6.582;2023-06-14T03:41:46;101736.13;;;14.65;60.51
73457;BME280;61691;53.072;6.582;2023-06-14T03:44:17;101794.19;;;15.01;61.21
73457;BME280;61691;53.072;6.582;2023-06-14T03:46:45;101803.31;;;15.08;60.86
73457;BME280;61691;53.072;6.582;2023-06-14T03:49:13;101783.50;;;15.01;60.59
73457;BME280;61691;53.072;6.582;2023-06-14T03:51:40;101787.56;;;15.05;60.88
73457;BME280;61691;53.072;6.582;2023-06-14T03:54:07;101794.75;;;15.15;60.54
73457;BME280;61691;53.072;6.582;2023-06-14T03:56:53;101791.34;;;15.13;60.79
73457;BME280;61691;53.072;6.582;2023-06-14T03:59:20;101802.44;;;15.27;60.68
73457;BME280;61691;53.072;6.582;2023-06-14T04:01:47;101801.59;;;15.27;60.87
73457;BME280;61691;53.072;6.582;2023-06-14T04:04:15;101806.09;;;15.36;60.50
73457;BME280;61691;53.072;6.582;2023-06-14T04:06:45;101806.13;;;15.55;61.33
73457;BME280;61691;53.072;6.582;2023-06-14T04:09:15;101820.78;;;16.35;61.00
73457;BME280;61691;53.072;6.582;2023-06-14T04:11:41;101823.19;;;17.28;59.44
73457;BME280;61691;53.072;6.582;2023-06-14T04:14:08;101808.63;;;18.00;57.53
73457;BME280;61691;53.072;6.582;2023-06-14T04:16:35;101825.28;;;18.95;55.74
73457;BME280;61691;53.072;6.582;2023-06-14T04:19:02;101830.38;;;19.71;53.34
73457;BME280;61691;53.072;6.582;2023-06-14T04:21:29;101767.50;;;19.81;51.33
73457;BME280;61691;53.072;6.582;2023-06-14T04:23:55;101834.84;;;20.67;49.59
73457;BME280;61691;53.072;6.582;2023-06-14T04:26:22;101842.16;;;21.12;48.09
73457;BME280;61691;53.072;6.582;2023-06-14T04:28:53;101827.03;;;21.34;46.82
73457;BME280;61691;53.072;6.582;2023-06-14T04:31:23;101845.44;;;21.68;45.54
73457;BME280;61691;53.072;6.582;2023-06-14T04:33:52;101833.34;;;22.16;45.17
73457;BME280;61691;53.072;6.582;2023-06-14T04:36:20;101848.31;;;22.77;44.36
73457;BME280;61691;53.072;6.582;2023-06-14T04:38:47;101844.16;;;23.17;42.71
73457;BME280;61691;53.072;6.582;2023-06-14T04:41:15;101850.03;;;23.63;41.20
73457;BME280;61691;53.072;6.582;2023-06-14T04:43:43;101836.09;;;23.94;40.19
73457;BME280;61691;53.072;6.582;2023-06-14T04:46:15;101839.28;;;24.32;39.16
73457;BME280;61691;53.072;6.582;2023-06-14T04:48:42;101856.56;;;24.72;37.82
73457;BME280;61691;53.072;6.582;2023-06-14T04:51:09;101857.84;;;24.83;37.32
73457;BME280;61691;53.072;6.582;2023-06-14T04:53:36;101847.47;;;24.93;36.66
73457;BME280;61691;53.072;6.582;2023-06-14T04:56:03;101848.38;;;25.26;36.21
73457;BME280;61691;53.072;6.582;2023-06-14T04:58:30;101847.19;;;25.62;35.60
73457;BME280;61691;53.072;6.582;2023-06-14T05:00:59;101876.41;;;25.99;34.92
73457;BME280;61691;53.072;6.582;2023-06-14T05:03:26;101874.09;;;26.09;33.93
73457;BME280;61691;53.072;6.582;2023-06-14T05:05:54;101864.88;;;26.17;33.73
73457;BME280;61691;53.072;6.582;2023-06-14T05:08:22;101844.44;;;26.08;33.11
73457;BME280;61691;53.072;6.582;2023-06-14T05:10:51;101862.59;;;26.27;33.17
73457;BME280;61691;53.072;6.582;2023-06-14T05:13:18;101886.06;;;26.73;32.85
73457;BME280;61691;53.072;6.582;2023-06-14T05:15:45;101860.91;;;26.84;32.17
73457;BME280;61691;53.072;6.582;2023-06-14T05:18:12;101885.81;;;27.25;31.83
73457;BME280;61691;53.072;6.582;2023-06-14T05:20:40;101870.78;;;27.54;31.19
73457;BME280;61691;53.072;6.582;2023-06-14T05:23:08;101891.81;;;27.72;31.06
73457;BME280;61691;53.072;6.582;2023-06-14T05:25:45;101882.31;;;27.99;30.53
73457;BME280;61691;53.072;6.582;2023-06-14T05:28:13;101886.56;;;28.13;30.11
73457;BME280;61691;53.072;6.582;2023-06-14T05:30:40;101899.28;;;28.01;29.80
73457;BME280;61691;53.072;6.582;2023-06-14T05:33:07;101894.00;;;28.06;29.54
73457;BME280;61691;53.072;6.582;2023-06-14T05:35:34;101874.75;;;28.26;29.66
73457;BME280;61691;53.072;6.582;2023-06-14T05:38:01;101888.28;;;28.87;29.29
73457;BME280;61691;53.072;6.582;2023-06-14T05:40:27;101811.28;;;28.67;27.74
73457;BME280;61691;53.072;6.582;2023-06-14T05:42:54;101892.56;;;29.43;27.36
73457;BME280;61691;53.072;6.582;2023-06-14T05:45:21;101905.22;;;29.68;26.79
73457;BME280;61691;53.072;6.582;2023-06-14T05:47:48;101903.88;;;29.58;26.53
73457;BME280;61691;53.072;6.582;2023-06-14T05:50:15;101897.47;;;29.53;26.94
73457;BME280;61691;53.072;6.582;2023-06-14T05:52:41;101892.09;;;29.46;27.04
73457;BME280;61691;53.072;6.582;2023-06-14T05:55:08;101900.44;;;29.51;26.97
73457;BME280;61691;53.072;6.582;2023-06-14T05:57:35;101902.00;;;29.71;27.00
73457;BME280;61691;53.072;6.582;2023-06-14T06:00:02;101912.59;;;29.90;26.02
73457;BME280;61691;53.072;6.582;2023-06-14T06:02:37;101915.44;;;29.60;26.42
73457;BME280;61691;53.072;6.582;2023-06-14T06:05:04;101902.34;;;29.62;26.50
73457;BME280;61691;53.072;6.582;2023-06-14T06:07:32;101883.34;;;29.68;26.17
73457;BME280;61691;53.072;6.582;2023-06-14T06:10:03;101874.25;;;29.97;26.06
73457;BME280;61691;53.072;6.582;2023-06-14T06:12:31;101885.88;;;30.27;25.10
73457;BME280;61691;53.072;6.582;2023-06-14T06:14:59;101915.13;;;30.50;24.99
73457;BME280;61691;53.072;6.582;2023-06-14T06:17:26;101908.78;;;30.73;24.35
73457;BME280;61691;53.072;6.582;2023-06-14T06:20:08;101918.81;;;30.96;25.10
73457;BME280;61691;53.072;6.582;2023-06-14T06:22:36;101919.44;;;31.43;24.26
73457;BME280;61691;53.072;6.582;2023-06-14T06:25:03;101913.28;;;31.36;23.82
73457;BME280;61691;53.072;6.582;2023-06-14T06:27:30;101912.50;;;31.52;23.31
73457;BME280;61691;53.072;6.582;2023-06-14T06:29:57;101909.00;;;31.40;23.46
73457;BME280;61691;53.072;6.582;2023-06-14T06:32:23;101916.31;;;31.51;23.71
73457;BME280;61691;53.072;6.582;2023-06-14T06:34:51;101902.06;;;31.66;23.26
73457;BME280;61691;53.072;6.582;2023-06-14T06:37:19;101916.00;;;31.81;23.23
73457;BME280;61691;53.072;6.582;2023-06-14T06:39:45;101919.00;;;31.96;23.29
73457;BME280;61691;53.072;6.582;2023-06-14T06:42:12;101927.09;;;32.41;22.82
73457;BME280;61691;53.072;6.582;2023-06-14T06:44:39;101920.72;;;32.57;21.93
73457;BME280;61691;53.072;6.582;2023-06-14T06:47:06;101929.56;;;32.59;21.38
73457;BME280;61691;53.072;6.582;2023-06-14T06:49:32;101926.66;;;32.49;21.98
73457;BME280;61691;53.072;6.582;2023-06-14T06:52:08;101930.69;;;32.63;21.74
73457;BME280;61691;53.072;6.582;2023-06-14T06:54:35;101942.53;;;32.86;21.21
73457;BME280;61691;53.072;6.582;2023-06-14T06:57:02;101932.00;;;33.21;20.78
73457;BME280;61691;53.072;6.582;2023-06-14T06:59:29;101941.94;;;33.27;21.11
73457;BME280;61691;53.072;6.582;2023-06-14T07:01:56;101932.69;;;33.65;20.65
73457;BME280;61691;53.072;6.582;2023-06-14T07:04:24;101956.63;;;33.97;19.71
73457;BME280;61691;53.072;6.582;2023-06-14T07:06:51;101945.44;;;34.13;20.19
73457;BME280;61691;53.072;6.582;2023-06-14T07:09:17;101961.09;;;34.40;19.28
73457;BME280;61691;53.072;6.582;2023-06-14T07:11:46;101964.63;;;34.82;19.27
73457;BME280;61691;53.072;6.582;2023-06-14T07:14:13;101964.72;;;35.13;17.87
73457;BME280;61691;53.072;6.582;2023-06-14T07:16:40;101945.94;;;35.05;18.28
73457;BME280;61691;53.072;6.582;2023-06-14T07:19:08;101935.75;;;35.00;18.18
73457;BME280;61691;53.072;6.582;2023-06-14T07:21:35;101966.19;;;34.68;18.20
73457;BME280;61691;53.072;6.582;2023-06-14T07:24:07;101964.72;;;34.50;18.06
73457;BME280;61691;53.072;6.582;2023-06-14T07:26:35;101968.59;;;34.54;18.78
73457;BME280;61691;53.072;6.582;2023-06-14T07:29:02;101967.19;;;34.47;19.35
73457;BME280;61691;53.072;6.582;2023-06-14T07:31:29;101967.88;;;34.74;19.13
73457;BME280;61691;53.072;6.582;2023-06-14T07:33:56;101950.09;;;34.45;18.82
73457;BME280;61691;53.072;6.582;2023-06-14T07:36:23;101960.38;;;33.86;18.66
73457;BME280;61691;53.072;6.582;2023-06-14T07:38:49;101962.53;;;33.03;19.57
73457;BME280;61691;53.072;6.582;2023-06-14T07:41:16;101971.47;;;32.00;20.79
73457;BME280;61691;53.072;6.582;2023-06-14T07:43:43;101948.28;;;30.77;22.45
73457;BME280;61691;53.072;6.582;2023-06-14T07:46:10;101960.91;;;30.31;23.03
73457;BME280;61691;53.072;6.582;2023-06-14T07:48:37;101940.56;;;29.39;23.86
73457;BME280;61691;53.072;6.582;2023-06-14T07:51:04;101943.94;;;29.05;24.67
73457;BME280;61691;53.072;6.582;2023-06-14T07:53:31;101971.66;;;28.65;25.47
73457;BME280;61691;53.072;6.582;2023-06-14T07:55:58;101948.44;;;28.13;25.97
73457;BME280;61691;53.072;6.582;2023-06-14T07:58:27;101965.69;;;27.82;26.56
73457;BME280;61691;53.072;6.582;2023-06-14T08:00:54;101955.00;;;27.11;27.81
73457;BME280;61691;53.072;6.582;2023-06-14T08:03:21;101953.69;;;26.63;28.38
73457;BME280;61691;53.072;6.582;2023-06-14T08:05:49;101932.00;;;26.10;28.99
73457;BME280;61691;53.072;6.582;2023-06-14T08:08:16;101944.53;;;26.17;29.44
73457;BME280;61691;53.072;6.582;2023-06-14T08:10:44;101962.75;;;26.24;29.61
73457;BME280;61691;53.072;6.582;2023-06-14T08:13:10;101957.50;;;26.09;30.32
73457;BME280;61691;53.072;6.582;2023-06-14T08:15:37;101960.44;;;26.07;30.55
73457;BME280;61691;53.072;6.582;2023-06-14T08:18:04;101955.44;;;25.85;29.98
73457;BME280;61691;53.072;6.582;2023-06-14T08:20:31;101939.53;;;25.62;30.21
73457;BME280;61691;53.072;6.582;2023-06-14T08:22:58;101952.22;;;25.48;30.44
73457;BME280;61691;53.072;6.582;2023-06-14T08:25:25;101971.59;;;25.38;31.50
73457;BME280;61691;53.072;6.582;2023-06-14T08:27:52;101944.81;;;25.16;31.16
73457;BME280;61691;53.072;6.582;2023-06-14T08:30:19;101942.06;;;25.09;31.49
73457;BME280;61691;53.072;6.582;2023-06-14T08:32:46;101947.31;;;25.11;32.01
73457;BME280;61691;53.072;6.582;2023-06-14T08:35:19;101895.41;;;24.79;32.11
73457;BME280;61691;53.072;6.582;2023-06-14T08:37:46;101959.38;;;25.01;31.45
73457;BME280;61691;53.072;6.582;2023-06-14T08:40:19;101964.31;;;24.91;31.73
73457;BME280;61691;53.072;6.582;2023-06-14T08:42:52;101960.47;;;24.79;31.75
73457;BME280;61691;53.072;6.582;2023-06-14T08:45:20;101906.25;;;24.45;32.23
73457;BME280;61691;53.072;6.582;2023-06-14T08:47:51;101954.41;;;24.77;31.78
73457;BME280;61691;53.072;6.582;2023-06-14T08:50:21;101937.06;;;24.65;31.99
73457;BME280;61691;53.072;6.582;2023-06-14T08:52:56;101954.09;;;24.59;32.27
73457;BME280;61691;53.072;6.582;2023-06-14T08:55:24;101953.19;;;24.45;32.72
73457;BME280;61691;53.072;6.582;2023-06-14T08:57:55;101922.25;;;24.33;33.15
73457;BME280;61691;53.072;6.582;2023-06-14T09:00:24;101952.19;;;24.53;32.61
73457;BME280;61691;53.072;6.582;2023-06-14T09:02:52;101931.94;;;24.49;32.51
73457;BME280;61691;53.072;6.582;2023-06-14T09:05:25;101947.78;;;24.52;32.12
73457;BME280;61691;53.072;6.582;2023-06-14T09:07:53;101943.19;;;24.46;32.36
73457;BME280;61691;53.072;6.582;2023-06-14T09:10:31;101936.78;;;24.25;31.80
73457;BME280;61691;53.072;6.582;2023-06-14T09:13:04;101928.66;;;24.25;32.11
73457;BME280;61691;53.072;6.582;2023-06-14T09:15:31;101963.63;;;24.48;32.31
73457;BME280;61691;53.072;6.582;2023-06-14T09:18:01;101954.09;;;24.59;32.19
73457;BME280;61691;53.072;6.582;2023-06-14T09:20:29;101956.59;;;24.60;32.99
73457;BME280;61691;53.072;6.582;2023-06-14T09:22:56;101953.50;;;24.63;32.98
73457;BME280;61691;53.072;6.582;2023-06-14T09:25:24;101960.44;;;24.73;32.70
73457;BME280;61691;53.072;6.582;2023-06-14T09:28:07;101965.03;;;24.72;32.99
73457;BME280;61691;53.072;6.582;2023-06-14T09:30:37;101953.78;;;24.75;33.30
73457;BME280;61691;53.072;6.582;2023-06-14T09:33:03;101947.53;;;24.81;32.93
73457;BME280;61691;53.072;6.582;2023-06-14T09:35:33;101883.41;;;24.60;32.83
73457;BME280;61691;53.072;6.582;2023-06-14T09:38:00;101950.41;;;25.08;32.54
73457;BME280;61691;53.072;6.582;2023-06-14T09:40:27;101958.78;;;25.13;32.27
73457;BME280;61691;53.072;6.582;2023-06-14T09:42:55;101941.78;;;24.91;31.72
73457;BME280;61691;53.072;6.582;2023-06-14T09:45:25;101951.78;;;24.90;31.46
73457;BME280;61691;53.072;6.582;2023-06-14T09:47:57;101935.41;;;24.71;32.56
73457;BME280;61691;53.072;6.582;2023-06-14T09:50:27;101941.25;;;24.74;32.05
73457;BME280;61691;53.072;6.582;2023-06-14T09:52:57;101952.97;;;24.81;31.93
73457;BME280;61691;53.072;6.582;2023-06-14T09:55:30;101915.34;;;24.65;32.32
73457;BME280;61691;53.072;6.582;2023-06-14T09:57:59;101962.28;;;25.06;32.36
73457;BME280;61691;53.072;6.582;2023-06-14T10:00:28;101952.47;;;25.05;31.77
73457;BME280;61691;53.072;6.582;2023-06-14T10:03:01;101944.94;;;24.94;32.22
73457;BME280;61691;53.072;6.582;2023-06-14T10:05:30;101943.09;;;25.01;31.80
73457;BME280;61691;53.072;6.582;2023-06-14T10:08:04;101951.06;;;25.10;31.46
73457;BME280;61691;53.072;6.582;2023-06-14T10:10:32;101924.03;;;24.88;31.43
73457;BME280;61691;53.072;6.582;2023-06-14T10:12:58;101913.25;;;24.67;32.15
73457;BME280;61691;53.072;6.582;2023-06-14T10:15:33;101950.91;;;24.83;32.54
73457;BME280;61691;53.072;6.582;2023-06-14T10:20:45;101934.94;;;24.67;31.59
73457;BME280;61691;53.072;6.582;2023-06-14T10:23:23;101931.09;;;24.48;32.14
73457;BME280;61691;53.072;6.582;2023-06-14T10:25:56;101943.22;;;24.52;32.48
73457;BME280;61691;53.072;6.582;2023-06-14T10:28:23;101946.53;;;24.48;31.83
73457;BME280;61691;53.072;6.582;2023-06-14T10:31:09;101945.91;;;24.52;32.29
73457;BME280;61691;53.072;6.582;2023-06-14T10:33:49;101951.59;;;24.57;32.03
73457;BME280;61691;53.072;6.582;2023-06-14T10:36:29;101942.00;;;24.55;32.60
73457;BME280;61691;53.072;6.582;2023-06-14T10:39:08;101942.22;;;24.60;32.44
73457;BME280;61691;53.072;6.582;2023-06-14T10:41:38;101923.63;;;24.50;32.06
73457;BME280;61691;53.072;6.582;2023-06-14T10:49:50;101948.25;;;24.96;31.60
73457;BME280;61691;53.072;6.582;2023-06-14T10:52:21;101942.22;;;24.94;31.22
73457;BME280;61691;53.072;6.582;2023-06-14T10:57:44;101944.63;;;24.83;29.39
73457;BME280;61691;53.072;6.582;2023-06-14T11:00:20;101926.47;;;24.83;29.37
73457;BME280;61691;53.072;6.582;2023-06-14T11:05:58;101942.38;;;24.86;29.01
73457;BME280;61691;53.072;6.582;2023-06-14T11:11:29;101927.91;;;24.73;28.67
73457;BME280;61691;53.072;6.582;2023-06-14T11:13:59;101937.91;;;24.72;28.47
73457;BME280;61691;53.072;6.582;2023-06-14T11:16:27;101937.97;;;24.85;28.19
73457;BME280;61691;53.072;6.582;2023-06-14T11:18:54;101937.13;;;24.85;28.87
73457;BME280;61691;53.072;6.582;2023-06-14T11:21:21;101906.25;;;24.79;28.70
73457;BME280;61691;53.072;6.582;2023-06-14T11:23:52;101926.38;;;24.98;28.84
73457;BME280;61691;53.072;6.582;2023-06-14T11:26:29;101919.88;;;24.92;28.50
73457;BME280;61691;53.072;6.582;2023-06-14T11:28:58;101927.19;;;24.98;28.55
73457;BME280;61691;53.072;6.582;2023-06-14T11:31:27;101886.84;;;24.82;28.87
73457;BME280;61691;53.072;6.582;2023-06-14T11:33:55;101924.28;;;25.00;29.58
73457;BME280;61691;53.072;6.582;2023-06-14T11:36:27;101910.47;;;24.88;29.47
73457;BME280;61691;53.072;6.582;2023-06-14T11:39:02;101889.53;;;24.76;29.29
73457;BME280;61691;53.072;6.582;2023-06-14T11:41:36;101912.38;;;24.94;30.11
73457;BME280;61691;53.072;6.582;2023-06-14T11:44:03;101892.78;;;24.99;30.43
73457;BME280;61691;53.072;6.582;2023-06-14T11:46:31;101900.97;;;25.19;30.30
73457;BME280;61691;53.072;6.582;2023-06-14T11:48:58;101900.97;;;25.19;29.84
73457;BME280;61691;53.072;6.582;2023-06-14T11:51:25;101912.72;;;25.39;29.66
73457;BME280;61691;53.072;6.582;2023-06-14T11:53:52;101905.22;;;25.41;29.36
73457;BME280;61691;53.072;6.582;2023-06-14T11:56:19;101909.16;;;25.45;28.91
73457;BME280;61691;53.072;6.582;2023-06-14T11:58:46;101912.28;;;25.42;29.44
73457;BME280;61691;53.072;6.582;2023-06-14T12:01:17;101877.81;;;25.29;30.08
73457;BME280;61691;53.072;6.582;2023-06-14T12:03:51;101912.47;;;25.34;29.74
73457;BME280;61691;53.072;6.582;2023-06-14T12:06:27;101888.00;;;25.08;29.66
73457;BME280;61691;53.072;6.582;2023-06-14T12:09:03;101877.16;;;25.08;30.26
73457;BME280;61691;53.072;6.582;2023-06-14T12:11:35;101908.31;;;25.25;29.99
73457;BME280;61691;53.072;6.582;2023-06-14T12:14:04;101912.44;;;25.14;30.04
73457;BME280;61691;53.072;6.582;2023-06-14T12:16:33;101900.34;;;25.17;30.12
73457;BME280;61691;53.072;6.582;2023-06-14T12:19:07;101915.19;;;25.27;31.03
73457;BME280;61691;53.072;6.582;2023-06-14T12:21:34;101884.72;;;25.32;30.73
73457;BME280;61691;53.072;6.582;2023-06-14T12:24:05;101886.81;;;25.50;30.28
73457;BME280;61691;53.072;6.582;2023-06-14T12:26:33;101895.63;;;25.58;29.84
73457;BME280;61691;53.072;6.582;2023-06-14T12:29:00;101904.00;;;25.70;29.35
73457;BME280;61691;53.072;6.582;2023-06-14T12:31:27;101885.97;;;25.49;29.32
73457;BME280;61691;53.072;6.582;2023-06-14T12:33:54;101902.28;;;25.49;29.48
73457;BME280;61691;53.072;6.582;2023-06-14T12:36:20;101916.47;;;25.51;30.05
73457;BME280;61691;53.072;6.582;2023-06-14T12:38:47;101885.56;;;25.39;29.13
73457;BME280;61691;53.072;6.582;2023-06-14T12:41:14;101908.59;;;25.69;29.15
73457;BME280;61691;53.072;6.582;2023-06-14T12:43:41;101896.47;;;25.65;29.24
73457;BME280;61691;53.072;6.582;2023-06-14T12:46:08;101903.56;;;25.79;29.40
73457;BME280;61691;53.072;6.582;2023-06-14T12:48:35;101900.03;;;25.72;29.40
73457;BME280;61691;53.072;6.582;2023-06-14T12:51:02;101894.38;;;25.80;29.30
73457;BME280;61691;53.072;6.582;2023-06-14T12:53:29;101882.47;;;25.81;29.53
73457;BME280;61691;53.072;6.582;2023-06-14T12:55:55;101879.75;;;25.88;29.06
73457;BME280;61691;53.072;6.582;2023-06-14T12:58:22;101894.81;;;25.91;28.79
73457;BME280;61691;53.072;6.582;2023-06-14T13:00:50;101890.63;;;25.81;29.45
73457;BME280;61691;53.072;6.582;2023-06-14T13:03:17;101904.41;;;25.87;29.72
73457;BME280;61691;53.072;6.582;2023-06-14T13:05:46;101880.59;;;25.75;28.76
73457;BME280;61691;53.072;6.582;2023-06-14T13:08:12;101895.84;;;25.90;29.25
73457;BME280;61691;53.072;6.582;2023-06-14T13:10:39;101893.78;;;25.92;29.35
73457;BME280;61691;53.072;6.582;2023-06-14T13:13:06;101902.31;;;26.02;29.03
73457;BME280;61691;53.072;6.582;2023-06-14T13:15:34;101903.56;;;26.12;29.05